Ottawa Macdonald-Cartier International Airport
CYOW : rendu visible

Aérodrome :











RETROUVEZ-NOUS SUR...

 
LOGIN :

S'inscrire | Disclaimer

   EN    FR    IT 

 









Légende :    VFR   VFR Marginal   IFR   IFR Intensif   IFR Très Intensif
Visi : 
Plafond : 
>= 8 km
>= 3000ft
5 à 8 km
1000 à 3000 ft
1500m à 5 km
500 à 1000 ft
800 à 1500m
200 à 500 ft
< 800m
< 200 ft
Symboles :   Orages  Brouillard  Fortes neiges  Fortes précipitations  Vent > 20 kt






- Altitude de l'aérodrome : 374 ft
- Code IATA : YOW


CYOW - Ottawa Macdonald-Cartier International

DERNIER METAR :
  • 100800Z 20013G19KT 8SM OVC009 08/07 A2940 RMK SC8 OCNL -DZ SLP959

METARs EXPIRÉS :
  • 100747Z 20011G16KT 8SM BKN009 08/07 A2939 RMK SC8 OCNL -DZ SLP957
  • 100700Z 19010KT 6SM -DZ BR OVC005 07/07 A2939 RMK SC8 SLP957
  • 100600Z 20011G16KT 8SM -DZ OVC006 07/07 A2939 RMK SC8 SLP956
  • 100551Z 20011KT 8SM -DZ OVC006 07/07 A2939 RMK SC8 SLP956

TAF TAF CYOW
Valide du 10 à 06h jusqu'au 11 à 06h UTC


100538Z 1006/1106 20015KT P6SM BKN012 OVC040
TEMPO 1006/1010 5SM -SHRA BR BKN007 OVC012
FM101000 21012KT P6SM SCT015 BKN025
TEMPO 1010/1013 P6SM -SHRA BKN015 OVC025
FM101300 25015G25KT P6SM BKN025
TEMPO 1013/1018 OVC020
FM101800 26015G25KT P6SM -SHSN BKN030
BECMG 1018/1020 29015G25KT
FM102100 30012G22KT P6SM BKN030
FM102300 31012KT P6SM SCT030 RMK NXT FCST BY 100900Z



MET'MAP, la Météo Aéronautique d'un coup d'oeil ! - Copyright ORBIFLY Décembre 2007 - Disclaimer

ORBIFLY MET'MAP TEAM :

Programmation & Développement : Alexandra Zaïnal
Sur une idée originale de : Baudouin d'Aumeries
Assistance à la programmation : Marc-Olivier Méhu
Soutien technique & logistique : Manuel Goepfert

Contact : metmap@orbifly.com




SOURCES & CREDITS :

   NOAA       Earth
Advisory